sensor_id;sensor_type;location;lat;lon;timestamp;P1;durP1;ratioP1;P2;durP2;ratioP2
52918;SDS011;38793;52.690;6.812;2023-01-10T00:00:05;14.57;;;3.10;;
52918;SDS011;38793;52.690;6.812;2023-01-10T00:02:31;15.85;;;2.88;;
52918;SDS011;38793;52.690;6.812;2023-01-10T00:04:57;13.60;;;2.80;;
52918;SDS011;38793;52.690;6.812;2023-01-10T00:07:23;31.43;;;5.27;;
52918;SDS011;38793;52.690;6.812;2023-01-10T00:09:48;13.37;;;2.63;;
52918;SDS011;38793;52.690;6.812;2023-01-10T00:12:14;16.63;;;3.47;;
52918;SDS011;38793;52.690;6.812;2023-01-10T00:14:58;22.88;;;3.38;;
52918;SDS011;38793;52.690;6.812;2023-01-10T00:17:23;10.18;;;3.25;;
52918;SDS011;38793;52.690;6.812;2023-01-10T00:19:49;17.40;;;3.43;;
52918;SDS011;38793;52.690;6.812;2023-01-10T00:22:15;15.07;;;3.97;;
52918;SDS011;38793;52.690;6.812;2023-01-10T00:24:42;16.35;;;3.22;;
52918;SDS011;38793;52.690;6.812;2023-01-10T00:27:08;19.83;;;4.23;;
52918;SDS011;38793;52.690;6.812;2023-01-10T00:29:36;24.00;;;3.75;;
52918;SDS011;38793;52.690;6.812;2023-01-10T00:32:02;22.33;;;4.80;;
52918;SDS011;38793;52.690;6.812;2023-01-10T00:34:28;26.47;;;4.27;;
52918;SDS011;38793;52.690;6.812;2023-01-10T00:39:20;16.00;;;4.72;;
52918;SDS011;38793;52.690;6.812;2023-01-10T00:44:31;24.30;;;4.22;;
52918;SDS011;38793;52.690;6.812;2023-01-10T00:46:56;19.83;;;3.63;;
52918;SDS011;38793;52.690;6.812;2023-01-10T00:49:22;24.13;;;3.80;;
52918;SDS011;38793;52.690;6.812;2023-01-10T00:51:47;24.47;;;4.50;;
52918;SDS011;38793;52.690;6.812;2023-01-10T00:54:13;25.15;;;5.85;;
52918;SDS011;38793;52.690;6.812;2023-01-10T00:56:39;22.15;;;4.75;;
52918;SDS011;38793;52.690;6.812;2023-01-10T00:59:05;20.33;;;4.30;;
52918;SDS011;38793;52.690;6.812;2023-01-10T01:01:31;31.63;;;4.90;;
52918;SDS011;38793;52.690;6.812;2023-01-10T01:03:57;18.80;;;3.17;;
52918;SDS011;38793;52.690;6.812;2023-01-10T01:06:23;22.70;;;4.00;;
52918;SDS011;38793;52.690;6.812;2023-01-10T01:08:49;14.88;;;2.50;;
52918;SDS011;38793;52.690;6.812;2023-01-10T01:11:15;17.23;;;4.15;;
52918;SDS011;38793;52.690;6.812;2023-01-10T01:13:41;21.47;;;4.10;;
52918;SDS011;38793;52.690;6.812;2023-01-10T01:16:06;18.67;;;3.23;;
52918;SDS011;38793;52.690;6.812;2023-01-10T01:18:32;24.60;;;4.97;;
52918;SDS011;38793;52.690;6.812;2023-01-10T01:20:58;18.15;;;3.08;;
52918;SDS011;38793;52.690;6.812;2023-01-10T01:23:29;21.33;;;4.03;;
52918;SDS011;38793;52.690;6.812;2023-01-10T01:25:56;19.38;;;3.33;;
52918;SDS011;38793;52.690;6.812;2023-01-10T01:28:22;21.00;;;3.50;;
52918;SDS011;38793;52.690;6.812;2023-01-10T01:30:49;15.05;;;3.10;;
52918;SDS011;38793;52.690;6.812;2023-01-10T01:33:14;21.15;;;3.65;;
52918;SDS011;38793;52.690;6.812;2023-01-10T01:35:44;18.70;;;2.95;;
52918;SDS011;38793;52.690;6.812;2023-01-10T01:38:11;14.85;;;2.90;;
52918;SDS011;38793;52.690;6.812;2023-01-10T01:43:24;10.70;;;3.00;;
52918;SDS011;38793;52.690;6.812;2023-01-10T01:45:50;20.13;;;3.45;;
52918;SDS011;38793;52.690;6.812;2023-01-10T01:50:53;17.75;;;2.53;;
52918;SDS011;38793;52.690;6.812;2023-01-10T01:53:48;20.55;;;2.72;;
52918;SDS011;38793;52.690;6.812;2023-01-10T01:56:21;13.60;;;2.50;;
52918;SDS011;38793;52.690;6.812;2023-01-10T01:58:56;17.30;;;3.08;;
52918;SDS011;38793;52.690;6.812;2023-01-10T02:01:25;16.15;;;3.38;;
52918;SDS011;38793;52.690;6.812;2023-01-10T02:03:56;13.55;;;2.97;;
52918;SDS011;38793;52.690;6.812;2023-01-10T02:06:44;14.73;;;3.20;;
52918;SDS011;38793;52.690;6.812;2023-01-10T02:09:14;17.08;;;3.15;;
52918;SDS011;38793;52.690;6.812;2023-01-10T02:11:44;14.07;;;4.07;;
52918;SDS011;38793;52.690;6.812;2023-01-10T02:14:10;17.10;;;3.15;;
52918;SDS011;38793;52.690;6.812;2023-01-10T02:16:37;18.75;;;4.15;;
52918;SDS011;38793;52.690;6.812;2023-01-10T02:19:03;19.20;;;3.70;;
52918;SDS011;38793;52.690;6.812;2023-01-10T02:21:49;20.42;;;4.15;;
52918;SDS011;38793;52.690;6.812;2023-01-10T02:24:50;16.13;;;3.22;;
52918;SDS011;38793;52.690;6.812;2023-01-10T02:36:55;19.95;;;3.30;;
52918;SDS011;38793;52.690;6.812;2023-01-10T02:39:17;12.98;;;2.78;;
52918;SDS011;38793;52.690;6.812;2023-01-10T02:42:01;13.15;;;3.72;;
52918;SDS011;38793;52.690;6.812;2023-01-10T02:44:39;17.13;;;3.22;;
52918;SDS011;38793;52.690;6.812;2023-01-10T02:47:10;17.90;;;3.28;;
52918;SDS011;38793;52.690;6.812;2023-01-10T02:49:45;16.52;;;3.03;;
52918;SDS011;38793;52.690;6.812;2023-01-10T02:52:12;18.15;;;3.80;;
52918;SDS011;38793;52.690;6.812;2023-01-10T02:54:44;19.13;;;4.03;;
52918;SDS011;38793;52.690;6.812;2023-01-10T03:02:52;15.18;;;2.88;;
52918;SDS011;38793;52.690;6.812;2023-01-10T03:11:06;15.38;;;4.82;;
52918;SDS011;38793;52.690;6.812;2023-01-10T03:13:41;20.55;;;3.55;;
52918;SDS011;38793;52.690;6.812;2023-01-10T03:16:09;16.88;;;3.85;;
52918;SDS011;38793;52.690;6.812;2023-01-10T03:18:47;21.13;;;3.63;;
52918;SDS011;38793;52.690;6.812;2023-01-10T03:21:22;13.95;;;2.67;;
52918;SDS011;38793;52.690;6.812;2023-01-10T03:23:49;17.80;;;3.95;;
52918;SDS011;38793;52.690;6.812;2023-01-10T03:26:20;16.10;;;3.75;;
52918;SDS011;38793;52.690;6.812;2023-01-10T03:28:55;18.20;;;3.20;;
52918;SDS011;38793;52.690;6.812;2023-01-10T03:31:36;17.67;;;3.50;;
52918;SDS011;38793;52.690;6.812;2023-01-10T03:34:06;24.00;;;3.40;;
52918;SDS011;38793;52.690;6.812;2023-01-10T03:49:49;21.73;;;2.92;;
52918;SDS011;38793;52.690;6.812;2023-01-10T03:52:20;21.92;;;4.28;;
52918;SDS011;38793;52.690;6.812;2023-01-10T03:54:46;9.95;;;2.60;;
52918;SDS011;38793;52.690;6.812;2023-01-10T03:57:21;13.63;;;2.90;;
52918;SDS011;38793;52.690;6.812;2023-01-10T03:59:49;14.48;;;3.03;;
52918;SDS011;38793;52.690;6.812;2023-01-10T04:02:18;25.33;;;2.35;;
52918;SDS011;38793;52.690;6.812;2023-01-10T04:04:44;22.63;;;2.63;;
52918;SDS011;38793;52.690;6.812;2023-01-10T04:07:09;15.70;;;3.13;;
52918;SDS011;38793;52.690;6.812;2023-01-10T04:09:35;17.00;;;3.10;;
52918;SDS011;38793;52.690;6.812;2023-01-10T04:12:00;18.80;;;3.53;;
52918;SDS011;38793;52.690;6.812;2023-01-10T04:14:26;19.10;;;3.27;;
52918;SDS011;38793;52.690;6.812;2023-01-10T04:16:52;16.42;;;1.90;;
52918;SDS011;38793;52.690;6.812;2023-01-10T04:19:18;14.03;;;2.80;;
52918;SDS011;38793;52.690;6.812;2023-01-10T04:21:43;13.30;;;2.60;;
52918;SDS011;38793;52.690;6.812;2023-01-10T04:24:09;18.37;;;3.20;;
52918;SDS011;38793;52.690;6.812;2023-01-10T04:26:35;12.70;;;2.70;;
52918;SDS011;38793;52.690;6.812;2023-01-10T04:29:00;29.67;;;4.90;;
52918;SDS011;38793;52.690;6.812;2023-01-10T04:31:26;25.33;;;3.70;;
52918;SDS011;38793;52.690;6.812;2023-01-10T04:33:51;12.47;;;2.73;;
52918;SDS011;38793;52.690;6.812;2023-01-10T04:36:17;25.90;;;4.13;;
52918;SDS011;38793;52.690;6.812;2023-01-10T04:38:42;25.60;;;3.73;;
52918;SDS011;38793;52.690;6.812;2023-01-10T04:41:08;16.73;;;4.10;;
52918;SDS011;38793;52.690;6.812;2023-01-10T04:43:34;18.20;;;2.80;;
52918;SDS011;38793;52.690;6.812;2023-01-10T04:45:59;21.00;;;3.93;;
52918;SDS011;38793;52.690;6.812;2023-01-10T04:48:25;16.07;;;2.90;;
52918;SDS011;38793;52.690;6.812;2023-01-10T04:50:51;24.00;;;3.97;;
52918;SDS011;38793;52.690;6.812;2023-01-10T04:53:17;21.83;;;3.80;;
52918;SDS011;38793;52.690;6.812;2023-01-10T04:55:43;23.52;;;4.72;;
52918;SDS011;38793;52.690;6.812;2023-01-10T04:58:09;22.75;;;4.85;;
52918;SDS011;38793;52.690;6.812;2023-01-10T05:00:35;17.40;;;3.53;;
52918;SDS011;38793;52.690;6.812;2023-01-10T05:03:00;19.43;;;3.80;;
52918;SDS011;38793;52.690;6.812;2023-01-10T05:05:26;21.90;;;4.57;;
52918;SDS011;38793;52.690;6.812;2023-01-10T05:07:52;18.45;;;4.75;;
52918;SDS011;38793;52.690;6.812;2023-01-10T05:10:18;22.67;;;4.10;;
52918;SDS011;38793;52.690;6.812;2023-01-10T05:12:44;20.50;;;4.57;;
52918;SDS011;38793;52.690;6.812;2023-01-10T05:15:10;31.25;;;4.82;;
52918;SDS011;38793;52.690;6.812;2023-01-10T05:17:36;21.50;;;3.78;;
52918;SDS011;38793;52.690;6.812;2023-01-10T05:20:02;20.70;;;3.85;;
52918;SDS011;38793;52.690;6.812;2023-01-10T05:22:28;18.85;;;3.50;;
52918;SDS011;38793;52.690;6.812;2023-01-10T05:24:53;27.33;;;4.50;;
52918;SDS011;38793;52.690;6.812;2023-01-10T05:27:19;27.30;;;5.37;;
52918;SDS011;38793;52.690;6.812;2023-01-10T05:29:44;20.77;;;4.03;;
52918;SDS011;38793;52.690;6.812;2023-01-10T05:32:10;20.40;;;4.60;;
52918;SDS011;38793;52.690;6.812;2023-01-10T05:34:35;27.63;;;4.73;;
52918;SDS011;38793;52.690;6.812;2023-01-10T05:37:01;24.77;;;3.77;;
52918;SDS011;38793;52.690;6.812;2023-01-10T05:39:27;26.00;;;5.67;;
52918;SDS011;38793;52.690;6.812;2023-01-10T05:41:52;28.90;;;5.70;;
52918;SDS011;38793;52.690;6.812;2023-01-10T05:44:18;21.27;;;3.90;;
52918;SDS011;38793;52.690;6.812;2023-01-10T05:46:43;13.70;;;3.17;;
52918;SDS011;38793;52.690;6.812;2023-01-10T05:49:09;22.33;;;4.23;;
52918;SDS011;38793;52.690;6.812;2023-01-10T05:51:35;23.70;;;5.57;;
52918;SDS011;38793;52.690;6.812;2023-01-10T05:54:00;18.48;;;4.57;;
52918;SDS011;38793;52.690;6.812;2023-01-10T05:56:26;20.63;;;4.83;;
52918;SDS011;38793;52.690;6.812;2023-01-10T05:58:53;22.08;;;3.95;;
52918;SDS011;38793;52.690;6.812;2023-01-10T06:01:19;34.20;;;4.30;;
52918;SDS011;38793;52.690;6.812;2023-01-10T06:03:44;16.73;;;4.17;;
52918;SDS011;38793;52.690;6.812;2023-01-10T06:06:10;27.43;;;4.67;;
52918;SDS011;38793;52.690;6.812;2023-01-10T06:08:35;24.47;;;4.93;;
52918;SDS011;38793;52.690;6.812;2023-01-10T06:11:04;17.40;;;3.13;;
52918;SDS011;38793;52.690;6.812;2023-01-10T06:13:30;23.13;;;4.85;;
52918;SDS011;38793;52.690;6.812;2023-01-10T06:15:55;27.77;;;5.13;;
52918;SDS011;38793;52.690;6.812;2023-01-10T06:18:21;17.53;;;3.07;;
52918;SDS011;38793;52.690;6.812;2023-01-10T06:20:46;17.13;;;4.20;;
52918;SDS011;38793;52.690;6.812;2023-01-10T06:23:12;18.90;;;4.47;;
52918;SDS011;38793;52.690;6.812;2023-01-10T06:25:38;23.33;;;4.07;;
52918;SDS011;38793;52.690;6.812;2023-01-10T06:28:06;21.10;;;4.03;;
52918;SDS011;38793;52.690;6.812;2023-01-10T06:30:36;13.77;;;2.40;;
52918;SDS011;38793;52.690;6.812;2023-01-10T06:33:02;21.53;;;3.70;;
52918;SDS011;38793;52.690;6.812;2023-01-10T06:35:29;19.02;;;3.92;;
52918;SDS011;38793;52.690;6.812;2023-01-10T06:37:55;16.17;;;3.75;;
52918;SDS011;38793;52.690;6.812;2023-01-10T06:40:20;20.75;;;4.28;;
52918;SDS011;38793;52.690;6.812;2023-01-10T06:42:46;19.00;;;3.60;;
52918;SDS011;38793;52.690;6.812;2023-01-10T06:45:12;22.17;;;4.53;;
52918;SDS011;38793;52.690;6.812;2023-01-10T06:47:37;22.93;;;3.60;;
52918;SDS011;38793;52.690;6.812;2023-01-10T06:50:03;18.43;;;4.13;;
52918;SDS011;38793;52.690;6.812;2023-01-10T06:52:29;20.80;;;2.90;;
52918;SDS011;38793;52.690;6.812;2023-01-10T06:54:55;27.83;;;5.40;;
52918;SDS011;38793;52.690;6.812;2023-01-10T06:57:21;16.63;;;4.03;;
52918;SDS011;38793;52.690;6.812;2023-01-10T06:59:46;22.37;;;4.03;;
52918;SDS011;38793;52.690;6.812;2023-01-10T07:02:12;17.03;;;3.73;;
52918;SDS011;38793;52.690;6.812;2023-01-10T07:04:38;17.05;;;3.50;;
52918;SDS011;38793;52.690;6.812;2023-01-10T07:07:04;17.23;;;4.23;;
52918;SDS011;38793;52.690;6.812;2023-01-10T07:09:30;17.88;;;4.03;;
52918;SDS011;38793;52.690;6.812;2023-01-10T07:11:56;20.38;;;4.15;;
52918;SDS011;38793;52.690;6.812;2023-01-10T07:14:21;15.73;;;4.17;;
52918;SDS011;38793;52.690;6.812;2023-01-10T07:16:47;17.93;;;4.87;;
52918;SDS011;38793;52.690;6.812;2023-01-10T07:19:13;23.80;;;4.87;;
52918;SDS011;38793;52.690;6.812;2023-01-10T07:21:40;25.60;;;5.00;;
52918;SDS011;38793;52.690;6.812;2023-01-10T07:24:05;23.60;;;5.10;;
52918;SDS011;38793;52.690;6.812;2023-01-10T07:26:31;18.52;;;4.53;;
52918;SDS011;38793;52.690;6.812;2023-01-10T07:28:57;26.83;;;5.87;;
52918;SDS011;38793;52.690;6.812;2023-01-10T07:31:22;19.43;;;4.30;;
52918;SDS011;38793;52.690;6.812;2023-01-10T07:33:51;26.77;;;5.10;;
52918;SDS011;38793;52.690;6.812;2023-01-10T07:36:17;23.45;;;5.18;;
52918;SDS011;38793;52.690;6.812;2023-01-10T07:38:43;26.05;;;5.38;;
52918;SDS011;38793;52.690;6.812;2023-01-10T07:41:09;23.00;;;5.40;;
52918;SDS011;38793;52.690;6.812;2023-01-10T07:43:34;33.17;;;6.00;;
52918;SDS011;38793;52.690;6.812;2023-01-10T07:46:00;25.47;;;6.53;;
52918;SDS011;38793;52.690;6.812;2023-01-10T07:48:29;24.13;;;5.22;;
52918;SDS011;38793;52.690;6.812;2023-01-10T07:50:55;20.92;;;5.65;;
52918;SDS011;38793;52.690;6.812;2023-01-10T07:53:22;22.92;;;5.75;;
52918;SDS011;38793;52.690;6.812;2023-01-10T07:55:48;26.75;;;5.82;;
52918;SDS011;38793;52.690;6.812;2023-01-10T07:58:14;27.95;;;7.53;;
52918;SDS011;38793;52.690;6.812;2023-01-10T08:00:39;34.77;;;5.80;;
52918;SDS011;38793;52.690;6.812;2023-01-10T08:03:05;24.60;;;6.63;;
52918;SDS011;38793;52.690;6.812;2023-01-10T08:05:31;32.97;;;6.87;;
52918;SDS011;38793;52.690;6.812;2023-01-10T08:08:02;31.90;;;5.35;;
52918;SDS011;38793;52.690;6.812;2023-01-10T08:10:29;28.58;;;6.95;;
52918;SDS011;38793;52.690;6.812;2023-01-10T08:12:54;26.17;;;5.37;;
52918;SDS011;38793;52.690;6.812;2023-01-10T08:15:20;27.33;;;5.27;;
52918;SDS011;38793;52.690;6.812;2023-01-10T08:17:46;30.23;;;5.33;;
52918;SDS011;38793;52.690;6.812;2023-01-10T08:20:12;30.25;;;6.20;;
52918;SDS011;38793;52.690;6.812;2023-01-10T08:22:37;19.80;;;6.00;;
52918;SDS011;38793;52.690;6.812;2023-01-10T08:25:03;29.80;;;5.83;;
52918;SDS011;38793;52.690;6.812;2023-01-10T08:27:29;23.58;;;4.63;;
52918;SDS011;38793;52.690;6.812;2023-01-10T08:29:54;22.70;;;6.27;;
52918;SDS011;38793;52.690;6.812;2023-01-10T08:32:20;19.60;;;5.30;;
52918;SDS011;38793;52.690;6.812;2023-01-10T08:34:46;21.55;;;4.90;;
52918;SDS011;38793;52.690;6.812;2023-01-10T08:37:12;18.80;;;4.30;;
52918;SDS011;38793;52.690;6.812;2023-01-10T08:39:38;14.57;;;4.38;;
52918;SDS011;38793;52.690;6.812;2023-01-10T08:42:04;25.17;;;4.75;;
52918;SDS011;38793;52.690;6.812;2023-01-10T08:44:29;21.00;;;4.70;;
52918;SDS011;38793;52.690;6.812;2023-01-10T08:46:55;18.47;;;4.30;;
52918;SDS011;38793;52.690;6.812;2023-01-10T08:49:21;18.30;;;3.50;;
52918;SDS011;38793;52.690;6.812;2023-01-10T08:51:46;23.52;;;4.22;;
52918;SDS011;38793;52.690;6.812;2023-01-10T08:54:12;23.53;;;4.33;;
52918;SDS011;38793;52.690;6.812;2023-01-10T08:56:38;24.40;;;5.17;;
52918;SDS011;38793;52.690;6.812;2023-01-10T08:59:04;20.17;;;4.00;;
52918;SDS011;38793;52.690;6.812;2023-01-10T09:01:30;29.67;;;5.35;;
52918;SDS011;38793;52.690;6.812;2023-01-10T09:03:56;26.45;;;4.82;;
52918;SDS011;38793;52.690;6.812;2023-01-10T09:06:21;27.70;;;4.90;;
52918;SDS011;38793;52.690;6.812;2023-01-10T09:08:48;26.70;;;5.07;;
52918;SDS011;38793;52.690;6.812;2023-01-10T09:11:14;26.67;;;4.35;;
52918;SDS011;38793;52.690;6.812;2023-01-10T09:13:39;19.33;;;4.75;;
52918;SDS011;38793;52.690;6.812;2023-01-10T09:16:06;18.65;;;5.60;;
52918;SDS011;38793;52.690;6.812;2023-01-10T09:18:32;29.67;;;5.57;;
52918;SDS011;38793;52.690;6.812;2023-01-10T09:20:58;21.55;;;5.68;;
52918;SDS011;38793;52.690;6.812;2023-01-10T09:23:24;27.33;;;7.97;;
52918;SDS011;38793;52.690;6.812;2023-01-10T09:25:51;25.83;;;6.32;;
52918;SDS011;38793;52.690;6.812;2023-01-10T09:28:18;30.90;;;6.25;;
52918;SDS011;38793;52.690;6.812;2023-01-10T09:30:45;28.27;;;6.07;;
52918;SDS011;38793;52.690;6.812;2023-01-10T09:33:10;32.95;;;6.63;;
52918;SDS011;38793;52.690;6.812;2023-01-10T09:35:37;29.05;;;7.30;;
52918;SDS011;38793;52.690;6.812;2023-01-10T09:38:04;26.95;;;8.10;;
52918;SDS011;38793;52.690;6.812;2023-01-10T09:43:50;33.13;;;8.40;;
52918;SDS011;38793;52.690;6.812;2023-01-10T09:46:22;29.20;;;9.23;;
52918;SDS011;38793;52.690;6.812;2023-01-10T09:49:05;34.72;;;8.93;;
52918;SDS011;38793;52.690;6.812;2023-01-10T09:52:09;25.20;;;7.28;;
52918;SDS011;38793;52.690;6.812;2023-01-10T09:54:46;34.10;;;9.13;;
52918;SDS011;38793;52.690;6.812;2023-01-10T09:57:17;30.55;;;8.40;;
52918;SDS011;38793;52.690;6.812;2023-01-10T09:59:45;33.03;;;7.90;;
52918;SDS011;38793;52.690;6.812;2023-01-10T10:02:25;29.05;;;7.25;;
52918;SDS011;38793;52.690;6.812;2023-01-10T10:05:06;28.88;;;8.80;;
52918;SDS011;38793;52.690;6.812;2023-01-10T10:07:40;34.15;;;9.65;;
52918;SDS011;38793;52.690;6.812;2023-01-10T10:10:06;33.13;;;8.37;;
52918;SDS011;38793;52.690;6.812;2023-01-10T10:12:48;33.70;;;8.43;;
52918;SDS011;38793;52.690;6.812;2023-01-10T10:15:49;33.85;;;8.23;;
52918;SDS011;38793;52.690;6.812;2023-01-10T10:18:37;29.35;;;7.65;;
52918;SDS011;38793;52.690;6.812;2023-01-10T10:22:16;31.08;;;7.97;;
52918;SDS011;38793;52.690;6.812;2023-01-10T10:27:14;38.13;;;9.32;;
52918;SDS011;38793;52.690;6.812;2023-01-10T10:33:18;28.52;;;8.02;;
52918;SDS011;38793;52.690;6.812;2023-01-10T10:37:52;30.90;;;8.00;;
52918;SDS011;38793;52.690;6.812;2023-01-10T10:40:21;32.65;;;8.07;;
52918;SDS011;38793;52.690;6.812;2023-01-10T10:42:51;35.03;;;8.38;;
52918;SDS011;38793;52.690;6.812;2023-01-10T10:45:21;28.77;;;8.13;;
52918;SDS011;38793;52.690;6.812;2023-01-10T10:47:55;39.90;;;8.75;;
52918;SDS011;38793;52.690;6.812;2023-01-10T10:50:32;32.72;;;7.22;;
52918;SDS011;38793;52.690;6.812;2023-01-10T10:53:00;29.05;;;7.88;;
52918;SDS011;38793;52.690;6.812;2023-01-10T10:55:28;24.85;;;7.03;;
52918;SDS011;38793;52.690;6.812;2023-01-10T10:57:57;30.50;;;6.43;;
52918;SDS011;38793;52.690;6.812;2023-01-10T11:00:22;32.03;;;6.67;;
52918;SDS011;38793;52.690;6.812;2023-01-10T11:02:57;26.63;;;7.40;;
52918;SDS011;38793;52.690;6.812;2023-01-10T11:05:37;26.73;;;6.05;;
52918;SDS011;38793;52.690;6.812;2023-01-10T11:08:06;24.73;;;5.43;;
52918;SDS011;38793;52.690;6.812;2023-01-10T11:10:35;20.10;;;5.40;;
52918;SDS011;38793;52.690;6.812;2023-01-10T11:15:37;32.97;;;5.28;;
52918;SDS011;38793;52.690;6.812;2023-01-10T11:18:11;32.78;;;7.18;;
52918;SDS011;38793;52.690;6.812;2023-01-10T11:20:45;33.58;;;5.47;;
52918;SDS011;38793;52.690;6.812;2023-01-10T11:26:29;34.30;;;6.10;;
52918;SDS011;38793;52.690;6.812;2023-01-10T11:29:16;25.60;;;4.75;;
52918;SDS011;38793;52.690;6.812;2023-01-10T11:31:45;31.85;;;5.53;;
52918;SDS011;38793;52.690;6.812;2023-01-10T11:39:23;25.98;;;6.57;;
52918;SDS011;38793;52.690;6.812;2023-01-10T11:41:49;31.15;;;6.93;;
52918;SDS011;38793;52.690;6.812;2023-01-10T11:44:21;29.70;;;6.40;;
52918;SDS011;38793;52.690;6.812;2023-01-10T11:46:51;28.38;;;6.32;;
52918;SDS011;38793;52.690;6.812;2023-01-10T11:49:35;31.30;;;5.35;;
52918;SDS011;38793;52.690;6.812;2023-01-10T11:52:03;39.65;;;7.13;;
52918;SDS011;38793;52.690;6.812;2023-01-10T11:54:42;23.02;;;6.75;;
52918;SDS011;38793;52.690;6.812;2023-01-10T11:57:18;32.00;;;5.55;;
52918;SDS011;38793;52.690;6.812;2023-01-10T11:59:53;24.73;;;6.13;;
52918;SDS011;38793;52.690;6.812;2023-01-10T12:02:26;28.80;;;6.60;;
52918;SDS011;38793;52.690;6.812;2023-01-10T12:04:54;29.25;;;6.03;;
52918;SDS011;38793;52.690;6.812;2023-01-10T12:07:22;30.98;;;6.25;;
52918;SDS011;38793;52.690;6.812;2023-01-10T12:10:01;27.93;;;5.33;;
52918;SDS011;38793;52.690;6.812;2023-01-10T12:12:28;39.38;;;7.95;;
52918;SDS011;38793;52.690;6.812;2023-01-10T12:14:58;29.67;;;4.85;;
52918;SDS011;38793;52.690;6.812;2023-01-10T12:17:45;23.20;;;5.30;;
52918;SDS011;38793;52.690;6.812;2023-01-10T12:20:11;23.63;;;5.25;;
52918;SDS011;38793;52.690;6.812;2023-01-10T12:22:39;31.88;;;6.00;;
52918;SDS011;38793;52.690;6.812;2023-01-10T12:25:16;25.70;;;6.03;;
52918;SDS011;38793;52.690;6.812;2023-01-10T12:27:45;28.42;;;5.50;;
52918;SDS011;38793;52.690;6.812;2023-01-10T12:30:24;29.08;;;4.78;;
52918;SDS011;38793;52.690;6.812;2023-01-10T12:32:54;34.85;;;5.18;;
52918;SDS011;38793;52.690;6.812;2023-01-10T12:35:23;27.38;;;5.38;;
52918;SDS011;38793;52.690;6.812;2023-01-10T12:38:01;29.00;;;4.90;;
52918;SDS011;38793;52.690;6.812;2023-01-10T12:40:37;28.80;;;6.13;;
52918;SDS011;38793;52.690;6.812;2023-01-10T12:43:28;27.73;;;5.15;;
52918;SDS011;38793;52.690;6.812;2023-01-10T12:46:32;28.92;;;5.18;;
52918;SDS011;38793;52.690;6.812;2023-01-10T12:49:08;30.75;;;5.95;;
52918;SDS011;38793;52.690;6.812;2023-01-10T12:51:42;25.35;;;6.78;;
52918;SDS011;38793;52.690;6.812;2023-01-10T12:54:20;30.38;;;6.15;;
52918;SDS011;38793;52.690;6.812;2023-01-10T12:56:49;27.23;;;6.50;;
52918;SDS011;38793;52.690;6.812;2023-01-10T12:59:16;22.38;;;6.20;;
52918;SDS011;38793;52.690;6.812;2023-01-10T13:01:49;26.92;;;6.13;;
52918;SDS011;38793;52.690;6.812;2023-01-10T13:04:19;38.60;;;6.32;;
52918;SDS011;38793;52.690;6.812;2023-01-10T13:06:47;31.25;;;6.50;;
52918;SDS011;38793;52.690;6.812;2023-01-10T13:09:18;31.50;;;5.85;;
52918;SDS011;38793;52.690;6.812;2023-01-10T13:11:51;27.02;;;5.53;;
52918;SDS011;38793;52.690;6.812;2023-01-10T13:14:34;26.45;;;5.63;;
52918;SDS011;38793;52.690;6.812;2023-01-10T13:17:14;21.20;;;5.30;;
52918;SDS011;38793;52.690;6.812;2023-01-10T13:22:43;28.48;;;5.22;;
52918;SDS011;38793;52.690;6.812;2023-01-10T13:25:27;35.53;;;7.20;;
52918;SDS011;38793;52.690;6.812;2023-01-10T13:30:54;36.28;;;6.25;;
52918;SDS011;38793;52.690;6.812;2023-01-10T13:33:32;24.15;;;4.65;;
52918;SDS011;38793;52.690;6.812;2023-01-10T13:36:08;29.63;;;5.38;;
52918;SDS011;38793;52.690;6.812;2023-01-10T13:41:22;25.75;;;5.40;;
52918;SDS011;38793;52.690;6.812;2023-01-10T13:44:08;25.33;;;5.97;;
52918;SDS011;38793;52.690;6.812;2023-01-10T13:51:36;29.20;;;5.55;;
52918;SDS011;38793;52.690;6.812;2023-01-10T13:54:04;23.45;;;4.47;;
52918;SDS011;38793;52.690;6.812;2023-01-10T13:56:51;25.55;;;5.80;;
52918;SDS011;38793;52.690;6.812;2023-01-10T14:05:06;24.50;;;5.57;;
52918;SDS011;38793;52.690;6.812;2023-01-10T14:10:08;27.77;;;6.50;;
52918;SDS011;38793;52.690;6.812;2023-01-10T14:12:49;31.25;;;5.72;;
52918;SDS011;38793;52.690;6.812;2023-01-10T14:15:25;31.25;;;4.70;;
52918;SDS011;38793;52.690;6.812;2023-01-10T14:20:27;14.68;;;3.47;;
52918;SDS011;38793;52.690;6.812;2023-01-10T14:22:58;16.80;;;3.42;;
52918;SDS011;38793;52.690;6.812;2023-01-10T14:25:27;19.70;;;3.63;;
52918;SDS011;38793;52.690;6.812;2023-01-10T14:27:54;22.45;;;4.00;;
52918;SDS011;38793;52.690;6.812;2023-01-10T14:30:26;24.83;;;5.25;;
52918;SDS011;38793;52.690;6.812;2023-01-10T14:32:58;28.42;;;4.70;;
52918;SDS011;38793;52.690;6.812;2023-01-10T14:35:31;28.73;;;5.22;;
52918;SDS011;38793;52.690;6.812;2023-01-10T14:38:01;27.63;;;4.93;;
52918;SDS011;38793;52.690;6.812;2023-01-10T14:40:50;18.60;;;5.20;;
52918;SDS011;38793;52.690;6.812;2023-01-10T14:43:17;32.22;;;4.93;;
52918;SDS011;38793;52.690;6.812;2023-01-10T14:45:48;24.20;;;3.78;;
52918;SDS011;38793;52.690;6.812;2023-01-10T14:48:26;26.15;;;5.45;;
52918;SDS011;38793;52.690;6.812;2023-01-10T14:53:37;19.15;;;3.58;;
52918;SDS011;38793;52.690;6.812;2023-01-10T14:56:15;25.67;;;5.67;;
52918;SDS011;38793;52.690;6.812;2023-01-10T15:01:42;26.70;;;5.13;;
52918;SDS011;38793;52.690;6.812;2023-01-10T15:04:12;22.48;;;6.47;;
52918;SDS011;38793;52.690;6.812;2023-01-10T15:09:16;24.73;;;3.13;;
52918;SDS011;38793;52.690;6.812;2023-01-10T15:11:41;27.30;;;4.47;;
52918;SDS011;38793;52.690;6.812;2023-01-10T15:14:08;22.80;;;4.75;;
52918;SDS011;38793;52.690;6.812;2023-01-10T15:16:38;33.28;;;5.28;;
52918;SDS011;38793;52.690;6.812;2023-01-10T15:19:08;25.17;;;3.85;;
52918;SDS011;38793;52.690;6.812;2023-01-10T15:21:42;30.30;;;5.72;;
52918;SDS011;38793;52.690;6.812;2023-01-10T15:27:11;16.98;;;3.10;;
52918;SDS011;38793;52.690;6.812;2023-01-10T15:29:39;15.82;;;4.32;;
52918;SDS011;38793;52.690;6.812;2023-01-10T15:32:11;25.48;;;4.05;;
52918;SDS011;38793;52.690;6.812;2023-01-10T15:34:48;20.30;;;4.05;;
52918;SDS011;38793;52.690;6.812;2023-01-10T15:37:20;20.50;;;4.38;;
52918;SDS011;38793;52.690;6.812;2023-01-10T15:39:57;33.85;;;5.00;;
52918;SDS011;38793;52.690;6.812;2023-01-10T15:42:23;22.83;;;3.65;;
52918;SDS011;38793;52.690;6.812;2023-01-10T15:44:50;19.08;;;3.65;;
52918;SDS011;38793;52.690;6.812;2023-01-10T15:52:51;20.55;;;4.60;;
52918;SDS011;38793;52.690;6.812;2023-01-10T15:58:17;24.80;;;3.15;;
52918;SDS011;38793;52.690;6.812;2023-01-10T16:00:49;18.85;;;4.00;;
52918;SDS011;38793;52.690;6.812;2023-01-10T16:03:20;19.30;;;2.95;;
52918;SDS011;38793;52.690;6.812;2023-01-10T16:05:58;26.65;;;4.82;;
52918;SDS011;38793;52.690;6.812;2023-01-10T16:10:57;20.52;;;4.35;;
52918;SDS011;38793;52.690;6.812;2023-01-10T16:13:24;28.45;;;5.78;;
52918;SDS011;38793;52.690;6.812;2023-01-10T16:15:55;25.55;;;4.50;;
52918;SDS011;38793;52.690;6.812;2023-01-10T16:18:23;29.58;;;4.43;;
52918;SDS011;38793;52.690;6.812;2023-01-10T16:23:22;15.30;;;3.27;;
52918;SDS011;38793;52.690;6.812;2023-01-10T16:25:52;28.30;;;4.18;;
52918;SDS011;38793;52.690;6.812;2023-01-10T16:28:21;27.58;;;4.15;;
52918;SDS011;38793;52.690;6.812;2023-01-10T16:30:48;17.55;;;3.83;;
52918;SDS011;38793;52.690;6.812;2023-01-10T16:33:20;20.50;;;4.27;;
52918;SDS011;38793;52.690;6.812;2023-01-10T16:35:49;19.88;;;3.40;;
52918;SDS011;38793;52.690;6.812;2023-01-10T16:38:17;21.77;;;4.85;;
52918;SDS011;38793;52.690;6.812;2023-01-10T16:43:15;19.38;;;4.75;;
52918;SDS011;38793;52.690;6.812;2023-01-10T16:48:10;20.08;;;2.95;;